Terminal Aerodrome Forecast
Issued by NWS

Home | Current Version | Previous Version | Text Only | Print | Product List | Glossary On
Versions: 1 2 3 4 5 6 7 8 9 10 11 12 13 14 15 16 17 18 19 20 21 22 23 24 25 26 27 28 29
000
FTUS41 KRNK 301721
TAFBCB
TAF
KBCB 301721Z 3018/0118 27005KT P6SM SCT035
     FM302030 24008KT P6SM VCTS BKN040CB
     FM010200 28004KT P6SM SCT050 BKN100
     FM010800 26006KT 4SM BR SCT009
     FM011200 27006KT P6SM SCT050 BKN250=

USA.gov is the U.S. government's official web portal to all federal, state and local government web resources and services.